Time;durP1;ratioP1;P1;durP2;ratioP2;P2;SDS_P1;SDS_P2;PMS_P1;PMS_P2;Temp;Humidity;BMP_temperature;BMP_pressure;BME280_temperature;BME280_humidity;BME280_pressure;Samples;Min_cycle;Max_cycle;Signal;HPM_P1;HPM_P2
2022/06/17 00:00:05;;;;;;;2.42;1.50;;;;;;;;;;5016054;28;20237;-51
2022/06/17 00:02:32;;;;;;;1.63;1.52;;;;;;;;;;5024553;28;20237;-51
2022/06/17 00:04:58;;;;;;;1.35;1.25;;;;;;;;;;5028188;28;20236;-51
2022/06/17 00:07:25;;;;;;;1.45;1.10;;;;;;;;;;5023801;28;20235;-51
2022/06/17 00:09:51;;;;;;;2.50;1.17;;;;;;;;;;5018289;28;20245;-51
2022/06/17 00:12:17;;;;;;;1.00;1.00;;;;;;;;;;5026589;28;20240;-50
2022/06/17 00:17:29;;;;;;;2.60;1.10;;;;;;;;;;5024678;28;20797;-51
2022/06/17 00:19:55;;;;;;;1.45;1.35;;;;;;;;;;5020543;28;20236;-52
2022/06/17 00:22:22;;;;;;;2.55;1.00;;;;;;;;;;5022349;28;20240;-51
2022/06/17 00:24:49;;;;;;;1.52;1.13;;;;;;;;;;5025361;28;20763;-51
2022/06/17 00:27:15;;;;;;;2.78;1.63;;;;;;;;;;5021326;28;20586;-51
2022/06/17 00:29:42;;;;;;;1.00;0.90;;;;;;;;;;5023764;28;20232;-52
2022/06/17 00:32:08;;;;;;;1.42;1.15;;;;;;;;;;5023133;28;20743;-53
2022/06/17 00:34:36;;;;;;;1.90;0.93;;;;;;;;;;5023128;28;20818;-51
2022/06/17 00:37:03;;;;;;;1.05;0.90;;;;;;;;;;5019056;28;20242;-51
2022/06/17 00:39:31;;;;;;;2.25;0.90;;;;;;;;;;5018217;28;20225;-51
2022/06/17 00:42:03;;;;;;;1.38;1.02;;;;;;;;;;5022827;28;20239;-51
2022/06/17 00:44:33;;;;;;;1.95;1.40;;;;;;;;;;5022217;28;20856;-51
2022/06/17 00:47:02;;;;;;;1.65;1.50;;;;;;;;;;5025843;28;20703;-52
2022/06/17 00:49:33;;;;;;;2.55;1.35;;;;;;;;;;5022092;28;20235;-54
2022/06/17 00:52:04;;;;;;;3.42;2.30;;;;;;;;;;5019610;28;20233;-51
2022/06/17 00:54:34;;;;;;;6.70;5.65;;;;;;;;;;5019431;28;20250;-51
2022/06/17 00:57:01;;;;;;;8.90;7.38;;;;;;;;;;5021044;28;20240;-51
2022/06/17 00:59:27;;;;;;;5.80;5.30;;;;;;;;;;5021087;28;20224;-52
2022/06/17 01:01:55;;;;;;;4.75;3.10;;;;;;;;;;5025278;28;20247;-51
2022/06/17 01:04:23;;;;;;;3.30;1.65;;;;;;;;;;5017517;28;20240;-51
2022/06/17 01:06:52;;;;;;;1.77;1.45;;;;;;;;;;5022233;28;20324;-51
2022/06/17 01:12:08;;;;;;;2.47;1.13;;;;;;;;;;5019962;28;20244;-51
2022/06/17 01:14:35;;;;;;;4.95;1.50;;;;;;;;;;5015764;28;20658;-51
2022/06/17 01:17:02;;;;;;;2.28;1.70;;;;;;;;;;5021588;28;20235;-51
2022/06/17 01:19:30;;;;;;;1.67;1.15;;;;;;;;;;5018964;28;20761;-51
2022/06/17 01:22:01;;;;;;;2.95;1.10;;;;;;;;;;5019750;28;20237;-51
2022/06/17 01:24:29;;;;;;;2.35;1.08;;;;;;;;;;5017451;28;20232;-50
2022/06/17 01:26:55;;;;;;;1.45;1.10;;;;;;;;;;5021987;28;20235;-53
2022/06/17 01:29:21;;;;;;;2.25;1.08;;;;;;;;;;5019498;28;20229;-52
2022/06/17 01:31:50;;;;;;;1.58;1.40;;;;;;;;;;5022027;28;20592;-52
2022/06/17 01:34:17;;;;;;;1.40;1.20;;;;;;;;;;5022268;28;20245;-51
2022/06/17 01:36:44;;;;;;;1.67;1.10;;;;;;;;;;5021681;28;20239;-53
2022/06/17 01:39:11;;;;;;;1.85;1.00;;;;;;;;;;5020988;28;20236;-52
2022/06/17 01:41:39;;;;;;;2.00;1.50;;;;;;;;;;5022265;28;20229;-51
2022/06/17 01:44:07;;;;;;;1.70;1.15;;;;;;;;;;5021841;28;20252;-52
2022/06/17 01:46:34;;;;;;;1.52;1.00;;;;;;;;;;5020061;28;20237;-52
2022/06/17 01:49:03;;;;;;;2.63;1.10;;;;;;;;;;5037894;28;21784;-51
2022/06/17 01:51:32;;;;;;;3.33;1.02;;;;;;;;;;5022597;28;20243;-52
2022/06/17 01:54:00;;;;;;;7.43;1.60;;;;;;;;;;5020550;28;20229;-51
2022/06/17 01:56:30;;;;;;;1.42;1.30;;;;;;;;;;5018249;28;20233;-51
2022/06/17 01:58:59;;;;;;;1.30;1.20;;;;;;;;;;5021884;28;20229;-52
2022/06/17 02:01:28;;;;;;;1.58;1.30;;;;;;;;;;5018965;28;20241;-51
2022/06/17 02:03:57;;;;;;;1.25;1.13;;;;;;;;;;5023473;28;20254;-52
2022/06/17 02:06:27;;;;;;;1.92;1.23;;;;;;;;;;5022995;28;20633;-52
2022/06/17 02:08:53;;;;;;;1.20;1.10;;;;;;;;;;5019428;28;20320;-51
2022/06/17 02:11:20;;;;;;;2.28;1.10;;;;;;;;;;5022549;28;20240;-51
2022/06/17 02:13:47;;;;;;;2.63;1.20;;;;;;;;;;5020403;28;20232;-50
2022/06/17 02:16:15;;;;;;;1.52;1.42;;;;;;;;;;5021004;28;20315;-52
2022/06/17 02:18:43;;;;;;;1.95;1.05;;;;;;;;;;5024345;28;20653;-52
2022/06/17 02:21:11;;;;;;;1.30;1.15;;;;;;;;;;5022294;28;20261;-51
2022/06/17 02:23:38;;;;;;;3.80;1.80;;;;;;;;;;5021439;28;20741;-50
2022/06/17 02:26:06;;;;;;;1.48;1.38;;;;;;;;;;5022442;28;20705;-51
2022/06/17 02:28:33;;;;;;;1.48;1.05;;;;;;;;;;5033099;28;20244;-51
2022/06/17 02:31:00;;;;;;;3.88;1.30;;;;;;;;;;5022842;28;20239;-51
2022/06/17 02:33:29;;;;;;;1.05;1.02;;;;;;;;;;5028143;28;20593;-52
2022/06/17 02:35:58;;;;;;;1.08;1.02;;;;;;;;;;5030295;28;20243;-51
2022/06/17 02:38:26;;;;;;;1.95;1.30;;;;;;;;;;5019553;28;20247;-53
2022/06/17 02:40:54;;;;;;;3.40;1.38;;;;;;;;;;5022307;28;20236;-51
2022/06/17 02:43:23;;;;;;;1.25;1.17;;;;;;;;;;5019507;28;20311;-52
2022/06/17 02:45:51;;;;;;;2.33;1.55;;;;;;;;;;5017106;28;20706;-51
2022/06/17 02:48:19;;;;;;;1.55;1.40;;;;;;;;;;5022089;28;20240;-51
2022/06/17 02:50:48;;;;;;;1.40;1.30;;;;;;;;;;5018788;28;20225;-51
2022/06/17 02:53:15;;;;;;;1.85;1.27;;;;;;;;;;5018924;28;20536;-53
2022/06/17 02:55:43;;;;;;;2.65;1.25;;;;;;;;;;5020750;28;20275;-50
2022/06/17 02:58:18;;;;;;;1.58;1.33;;;;;;;;;;5021294;28;20235;-53
2022/06/17 03:00:44;;;;;;;2.22;1.30;;;;;;;;;;5020035;28;20231;-54
2022/06/17 03:03:12;;;;;;;2.05;1.50;;;;;;;;;;5022406;28;20246;-52
2022/06/17 03:05:39;;;;;;;1.75;1.63;;;;;;;;;;5020244;28;20229;-53
2022/06/17 03:08:16;;;;;;;2.63;1.30;;;;;;;;;;5026506;28;20226;-51
2022/06/17 03:10:43;;;;;;;4.28;1.80;;;;;;;;;;5022587;28;20239;-52
2022/06/17 03:13:11;;;;;;;2.38;1.30;;;;;;;;;;5020121;28;20272;-52
2022/06/17 03:15:38;;;;;;;2.47;1.63;;;;;;;;;;5018391;28;20240;-52
2022/06/17 03:18:04;;;;;;;1.60;1.20;;;;;;;;;;5020739;28;20240;-52
2022/06/17 03:20:34;;;;;;;4.75;1.55;;;;;;;;;;5018938;28;20240;-51
2022/06/17 03:23:01;;;;;;;4.45;1.77;;;;;;;;;;5022096;28;20241;-51
2022/06/17 03:25:30;;;;;;;3.03;1.88;;;;;;;;;;5031075;28;20252;-52
2022/06/17 03:27:59;;;;;;;4.78;1.95;;;;;;;;;;5017475;28;20239;-52
2022/06/17 03:30:27;;;;;;;1.63;1.52;;;;;;;;;;5016784;28;20233;-52
2022/06/17 03:32:58;;;;;;;1.67;1.45;;;;;;;;;;5020014;28;20244;-52
2022/06/17 03:35:27;;;;;;;3.15;1.90;;;;;;;;;;5020141;28;20283;-51
2022/06/17 03:37:56;;;;;;;2.20;1.38;;;;;;;;;;5015717;28;20286;-51
2022/06/17 03:40:26;;;;;;;1.80;1.65;;;;;;;;;;5018575;28;20319;-52
2022/06/17 03:42:57;;;;;;;2.03;1.90;;;;;;;;;;5024196;28;20233;-52
2022/06/17 03:45:26;;;;;;;2.97;2.10;;;;;;;;;;5024498;28;20511;-52
2022/06/17 03:47:55;;;;;;;4.97;2.10;;;;;;;;;;5021872;28;20240;-52
2022/06/17 03:50:23;;;;;;;1.83;1.73;;;;;;;;;;5026142;28;20240;-52
2022/06/17 03:52:52;;;;;;;4.03;2.33;;;;;;;;;;5022568;28;20244;-52
2022/06/17 03:55:19;;;;;;;5.10;2.05;;;;;;;;;;5016902;28;20571;-53
2022/06/17 03:57:47;;;;;;;3.05;2.08;;;;;;;;;;5030458;28;20233;-53
2022/06/17 04:00:17;;;;;;;5.38;2.03;;;;;;;;;;5024459;28;20236;-52
2022/06/17 04:02:43;;;;;;;2.85;1.92;;;;;;;;;;5023614;28;20343;-52
2022/06/17 04:05:14;;;;;;;3.20;2.00;;;;;;;;;;5023775;28;20244;-52
2022/06/17 04:07:41;;;;;;;2.38;2.00;;;;;;;;;;5019142;28;20240;-52
2022/06/17 04:10:07;;;;;;;3.08;2.35;;;;;;;;;;5023235;28;20307;-51
2022/06/17 04:12:34;;;;;;;2.67;2.08;;;;;;;;;;5030093;28;21325;-52
2022/06/17 04:15:04;;;;;;;3.33;2.22;;;;;;;;;;5023017;28;20724;-52
2022/06/17 04:17:33;;;;;;;3.92;2.03;;;;;;;;;;5020448;28;20240;-51
2022/06/17 04:20:11;;;;;;;3.20;2.05;;;;;;;;;;5024232;28;20240;-51
2022/06/17 04:22:37;;;;;;;3.63;2.10;;;;;;;;;;5020380;28;20232;-52
2022/06/17 04:25:06;;;;;;;2.92;2.35;;;;;;;;;;5023280;28;20251;-52
2022/06/17 04:30:16;;;;;;;4.82;2.17;;;;;;;;;;5025280;28;20234;-52
2022/06/17 04:32:44;;;;;;;4.72;2.78;;;;;;;;;;5029762;28;20232;-52
2022/06/17 04:35:13;;;;;;;3.78;2.40;;;;;;;;;;5019877;28;20224;-53
2022/06/17 04:37:40;;;;;;;2.88;2.47;;;;;;;;;;5037334;28;20234;-52
2022/06/17 04:40:13;;;;;;;3.45;2.25;;;;;;;;;;5040110;28;20554;-54
2022/06/17 04:42:42;;;;;;;4.07;2.65;;;;;;;;;;5042762;28;20238;-56
2022/06/17 04:45:17;;;;;;;5.13;2.47;;;;;;;;;;5042534;28;20319;-52
2022/06/17 04:47:44;;;;;;;3.30;2.85;;;;;;;;;;5044266;28;20242;-52
2022/06/17 04:50:12;;;;;;;4.72;2.80;;;;;;;;;;5043593;28;20228;-53
2022/06/17 04:52:41;;;;;;;2.63;2.33;;;;;;;;;;5038110;28;20573;-52
2022/06/17 04:55:12;;;;;;;4.13;2.75;;;;;;;;;;5046753;28;20643;-53
2022/06/17 04:57:39;;;;;;;3.13;2.85;;;;;;;;;;5035452;28;20232;-53
2022/06/17 05:00:06;;;;;;;2.88;2.63;;;;;;;;;;5043517;28;20254;-52
2022/06/17 05:02:34;;;;;;;4.93;2.80;;;;;;;;;;5040258;28;20671;-51
2022/06/17 05:05:02;;;;;;;3.83;3.30;;;;;;;;;;5043974;28;20239;-70
2022/06/17 05:07:31;;;;;;;3.95;2.90;;;;;;;;;;5044205;28;20242;-53
2022/06/17 05:10:00;;;;;;;6.82;3.17;;;;;;;;;;5044396;28;20232;-57
2022/06/17 05:12:28;;;;;;;4.85;3.42;;;;;;;;;;5040856;28;20405;-52
2022/06/17 05:14:56;;;;;;;3.25;2.83;;;;;;;;;;5042523;28;20659;-50
2022/06/17 05:17:23;;;;;;;2.65;2.45;;;;;;;;;;5040176;28;20236;-52
2022/06/17 05:19:49;;;;;;;3.08;2.55;;;;;;;;;;5037055;28;20318;-52
2022/06/17 05:22:26;;;;;;;4.88;3.03;;;;;;;;;;5040294;28;20664;-52
2022/06/17 05:24:53;;;;;;;5.07;3.42;;;;;;;;;;5033824;28;20224;-51
2022/06/17 05:27:19;;;;;;;4.80;3.00;;;;;;;;;;5040519;28;20256;-51
2022/06/17 05:29:46;;;;;;;4.93;3.25;;;;;;;;;;5041549;28;20238;-51
2022/06/17 05:32:14;;;;;;;4.88;2.97;;;;;;;;;;5039285;28;20233;-51
2022/06/17 05:34:41;;;;;;;9.85;4.03;;;;;;;;;;5023505;28;20225;-51
2022/06/17 05:37:07;;;;;;;3.83;2.95;;;;;;;;;;5026303;28;20620;-51
2022/06/17 05:39:35;;;;;;;3.10;2.88;;;;;;;;;;5041500;28;20228;-52
2022/06/17 05:42:01;;;;;;;4.65;3.10;;;;;;;;;;5025842;28;20236;-52
2022/06/17 05:44:28;;;;;;;5.57;3.35;;;;;;;;;;5026178;28;20311;-51
2022/06/17 05:46:54;;;;;;;4.60;3.40;;;;;;;;;;5025908;28;20338;-52
2022/06/17 05:49:20;;;;;;;9.18;3.10;;;;;;;;;;5025478;28;20236;-52
2022/06/17 05:51:47;;;;;;;7.03;3.95;;;;;;;;;;5021649;28;20236;-52
2022/06/17 05:54:13;;;;;;;8.80;3.17;;;;;;;;;;5024188;28;20236;-51
2022/06/17 05:56:41;;;;;;;3.63;2.95;;;;;;;;;;5025858;28;20319;-51
2022/06/17 05:59:07;;;;;;;4.93;2.88;;;;;;;;;;5023518;28;20232;-51
2022/06/17 06:01:34;;;;;;;4.57;2.95;;;;;;;;;;5028192;28;20232;-51
2022/06/17 06:04:00;;;;;;;5.28;2.88;;;;;;;;;;5025366;28;20327;-52
2022/06/17 06:06:27;;;;;;;4.88;2.90;;;;;;;;;;5023700;28;20266;-51
2022/06/17 06:08:53;;;;;;;6.47;3.60;;;;;;;;;;5028913;28;20232;-51
2022/06/17 06:11:19;;;;;;;3.40;2.90;;;;;;;;;;5034401;28;20243;-52
2022/06/17 06:13:47;;;;;;;4.10;3.55;;;;;;;;;;5028258;28;20240;-52
2022/06/17 06:16:15;;;;;;;3.60;3.30;;;;;;;;;;5020689;28;20236;-52
2022/06/17 06:18:45;;;;;;;6.25;3.38;;;;;;;;;;5039567;28;20341;-51
2022/06/17 06:21:11;;;;;;;3.63;3.08;;;;;;;;;;5045622;28;20269;-51
2022/06/17 06:23:39;;;;;;;6.38;3.97;;;;;;;;;;5036856;28;20239;-51
2022/06/17 06:26:07;;;;;;;4.40;3.03;;;;;;;;;;5043351;28;20239;-52
2022/06/17 06:28:35;;;;;;;7.72;4.65;;;;;;;;;;5040169;28;20232;-52
2022/06/17 06:31:04;;;;;;;6.97;3.67;;;;;;;;;;5036079;28;20231;-52
2022/06/17 06:33:30;;;;;;;6.95;3.30;;;;;;;;;;5042355;28;20787;-51
2022/06/17 06:35:57;;;;;;;4.88;3.17;;;;;;;;;;5030872;28;20311;-53
2022/06/17 06:38:23;;;;;;;3.10;2.80;;;;;;;;;;5033377;28;20319;-51
2022/06/17 06:40:49;;;;;;;3.80;3.40;;;;;;;;;;5040932;28;20232;-52
2022/06/17 06:43:17;;;;;;;5.35;2.92;;;;;;;;;;5044262;28;20319;-51
2022/06/17 06:45:43;;;;;;;4.25;2.97;;;;;;;;;;5038301;28;20232;-64
2022/06/17 06:48:12;;;;;;;5.75;3.08;;;;;;;;;;5039832;28;20232;-51
2022/06/17 06:50:39;;;;;;;3.10;2.88;;;;;;;;;;5042626;28;20235;-51
2022/06/17 06:53:05;;;;;;;6.32;2.95;;;;;;;;;;5041287;28;20244;-53
2022/06/17 06:55:34;;;;;;;4.32;3.33;;;;;;;;;;5044152;28;20235;-51
2022/06/17 06:58:02;;;;;;;5.00;2.22;;;;;;;;;;5042070;28;20235;-52
2022/06/17 07:00:30;;;;;;;6.80;2.92;;;;;;;;;;5043133;28;20263;-51
2022/06/17 07:02:56;;;;;;;5.32;2.75;;;;;;;;;;5040478;28;20324;-51
2022/06/17 07:05:24;;;;;;;4.70;3.08;;;;;;;;;;5042459;28;20235;-52
2022/06/17 07:07:51;;;;;;;4.80;3.25;;;;;;;;;;5043779;28;20255;-52
2022/06/17 07:10:20;;;;;;;4.05;2.78;;;;;;;;;;5042831;28;20243;-52
2022/06/17 07:12:46;;;;;;;3.10;2.83;;;;;;;;;;5043442;28;20232;-52
2022/06/17 07:15:13;;;;;;;3.85;3.40;;;;;;;;;;5034945;28;20311;-51
2022/06/17 07:17:39;;;;;;;3.30;2.60;;;;;;;;;;5045319;28;20231;-52
2022/06/17 07:20:07;;;;;;;6.85;2.97;;;;;;;;;;5040678;28;20244;-51
2022/06/17 07:22:36;;;;;;;3.03;2.47;;;;;;;;;;5044557;28;20242;-51
2022/06/17 07:25:03;;;;;;;3.00;2.65;;;;;;;;;;5043338;28;20323;-51
2022/06/17 07:27:29;;;;;;;3.60;2.58;;;;;;;;;;5032264;28;21325;-50
2022/06/17 07:29:56;;;;;;;4.47;2.70;;;;;;;;;;5041139;28;20239;-51
2022/06/17 07:32:22;;;;;;;2.45;2.30;;;;;;;;;;5041640;28;20236;-52
2022/06/17 07:34:48;;;;;;;4.03;2.35;;;;;;;;;;5040231;28;20684;-51
2022/06/17 07:40:03;;;;;;;2.58;2.35;;;;;;;;;;5044822;28;20281;-51
2022/06/17 07:42:37;;;;;;;2.75;2.47;;;;;;;;;;5044493;28;20722;-53
2022/06/17 07:45:04;;;;;;;4.30;2.60;;;;;;;;;;5039731;28;20250;-51
2022/06/17 07:47:31;;;;;;;2.80;2.60;;;;;;;;;;5043306;28;20238;-51
2022/06/17 07:49:57;;;;;;;4.43;2.83;;;;;;;;;;5039708;28;20230;-53
2022/06/17 07:52:24;;;;;;;3.80;2.28;;;;;;;;;;5044191;28;20242;-51
2022/06/17 07:54:51;;;;;;;3.78;2.42;;;;;;;;;;5042722;28;20239;-52
2022/06/17 07:57:19;;;;;;;5.78;2.88;;;;;;;;;;5036812;28;20244;-53
2022/06/17 07:59:45;;;;;;;4.35;2.42;;;;;;;;;;5041268;28;20755;-51
2022/06/17 08:02:11;;;;;;;4.15;2.40;;;;;;;;;;5031572;28;20240;-52
2022/06/17 08:04:38;;;;;;;3.25;2.20;;;;;;;;;;5032370;28;20311;-50
2022/06/17 08:07:04;;;;;;;2.55;2.00;;;;;;;;;;5020979;28;20644;-49
2022/06/17 08:09:31;;;;;;;1.85;1.75;;;;;;;;;;5020179;28;20229;-51
2022/06/17 08:11:57;;;;;;;2.63;2.13;;;;;;;;;;5023884;28;20248;-52
2022/06/17 08:14:25;;;;;;;1.88;1.77;;;;;;;;;;5026475;28;20236;-53
2022/06/17 08:16:52;;;;;;;2.17;1.90;;;;;;;;;;5024904;28;20246;-50
2022/06/17 08:19:18;;;;;;;4.38;2.10;;;;;;;;;;5024455;28;20259;-51
2022/06/17 08:21:45;;;;;;;2.17;1.80;;;;;;;;;;5034871;28;20782;-52
2022/06/17 08:24:12;;;;;;;2.03;1.85;;;;;;;;;;5031321;28;20713;-51
2022/06/17 08:26:38;;;;;;;1.90;1.60;;;;;;;;;;5021113;28;20237;-51
2022/06/17 08:29:05;;;;;;;4.97;1.40;;;;;;;;;;5020778;28;20273;-52
2022/06/17 08:31:32;;;;;;;6.15;1.70;;;;;;;;;;5022523;28;20306;-50
2022/06/17 08:33:59;;;;;;;2.15;1.70;;;;;;;;;;5022606;28;20320;-51
2022/06/17 08:36:27;;;;;;;2.22;1.90;;;;;;;;;;5023312;28;20598;-51
2022/06/17 08:38:56;;;;;;;4.05;1.80;;;;;;;;;;5016995;28;20608;-51
2022/06/17 08:41:25;;;;;;;1.45;1.35;;;;;;;;;;5022260;28;20640;-51
2022/06/17 08:44:00;;;;;;;2.88;1.67;;;;;;;;;;5022217;28;20324;-51
2022/06/17 08:46:37;;;;;;;2.60;1.85;;;;;;;;;;5027138;28;20294;-51
2022/06/17 08:49:13;;;;;;;2.42;1.70;;;;;;;;;;5020531;28;20666;-51
2022/06/17 08:51:50;;;;;;;3.55;1.55;;;;;;;;;;5021625;28;20236;-51
2022/06/17 08:54:25;;;;;;;2.60;1.67;;;;;;;;;;5023595;28;20237;-52
2022/06/17 08:57:01;;;;;;;4.90;2.00;;;;;;;;;;5025171;28;20318;-51
2022/06/17 08:59:36;;;;;;;2.55;1.50;;;;;;;;;;5018232;28;20452;-51
2022/06/17 09:02:06;;;;;;;3.85;2.10;;;;;;;;;;5020496;28;20232;-51
2022/06/17 09:04:40;;;;;;;2.15;1.55;;;;;;;;;;5022392;28;20236;-51
2022/06/17 09:07:12;;;;;;;2.05;1.30;;;;;;;;;;5019922;28;20277;-51
2022/06/17 09:09:50;;;;;;;1.60;1.50;;;;;;;;;;5020459;28;20260;-50
2022/06/17 09:12:21;;;;;;;2.45;1.73;;;;;;;;;;5017220;28;20232;-52
2022/06/17 09:14:50;;;;;;;3.25;1.63;;;;;;;;;;5017344;28;20224;-51
2022/06/17 09:17:22;;;;;;;1.52;1.17;;;;;;;;;;5017445;28;20236;-52
2022/06/17 09:19:52;;;;;;;1.65;1.42;;;;;;;;;;5024856;28;20236;-51
2022/06/17 09:22:20;;;;;;;2.00;1.63;;;;;;;;;;5040761;28;20272;-51
2022/06/17 09:24:46;;;;;;;1.35;1.25;;;;;;;;;;5018963;28;20259;-51
2022/06/17 09:27:16;;;;;;;3.80;1.90;;;;;;;;;;5022067;28;20236;-51
2022/06/17 09:29:46;;;;;;;1.40;1.30;;;;;;;;;;5035199;28;20257;-50
2022/06/17 09:32:18;;;;;;;1.38;1.27;;;;;;;;;;5021318;28;20247;-51
2022/06/17 09:34:49;;;;;;;4.10;1.13;;;;;;;;;;5042835;28;20220;-52
2022/06/17 09:37:19;;;;;;;1.33;1.23;;;;;;;;;;5019596;28;20233;-52
2022/06/17 09:39:49;;;;;;;5.63;1.50;;;;;;;;;;5020885;28;20232;-51
2022/06/17 09:42:18;;;;;;;1.65;1.42;;;;;;;;;;5026742;28;20247;-51
2022/06/17 09:44:47;;;;;;;1.65;1.33;;;;;;;;;;5025655;28;20311;-51
2022/06/17 09:47:16;;;;;;;1.42;1.05;;;;;;;;;;5022696;28;20232;-51
2022/06/17 09:49:47;;;;;;;2.00;1.40;;;;;;;;;;5021754;28;20926;-50
2022/06/17 09:52:16;;;;;;;5.43;1.50;;;;;;;;;;5023642;28;20229;-50
2022/06/17 09:54:46;;;;;;;1.40;1.08;;;;;;;;;;5035964;28;20257;-51
2022/06/17 09:57:15;;;;;;;1.33;1.23;;;;;;;;;;5022490;28;20272;-51
2022/06/17 09:59:43;;;;;;;1.65;1.10;;;;;;;;;;5020266;28;20256;-50
2022/06/17 10:02:17;;;;;;;1.90;1.27;;;;;;;;;;5022641;28;20233;-52
2022/06/17 10:04:44;;;;;;;1.73;1.33;;;;;;;;;;5021310;28;20233;-51
2022/06/17 10:07:16;;;;;;;3.70;1.30;;;;;;;;;;5039273;28;20297;-51
2022/06/17 10:09:51;;;;;;;2.38;1.27;;;;;;;;;;5023418;28;20235;-51
2022/06/17 10:12:25;;;;;;;1.42;1.33;;;;;;;;;;5038165;28;20701;-52
2022/06/17 10:14:57;;;;;;;1.50;1.40;;;;;;;;;;5040421;28;20244;-52
2022/06/17 10:20:22;;;;;;;1.23;1.13;;;;;;;;;;5031096;28;20262;-51
2022/06/17 10:22:55;;;;;;;2.83;1.00;;;;;;;;;;5034514;28;20265;-52
2022/06/17 10:25:34;;;;;;;2.03;1.25;;;;;;;;;;5022686;28;20256;-52
2022/06/17 10:28:09;;;;;;;1.17;1.08;;;;;;;;;;5011380;28;20328;-51
2022/06/17 10:30:39;;;;;;;2.60;1.38;;;;;;;;;;5016900;28;21275;-50
2022/06/17 10:33:07;;;;;;;2.60;1.40;;;;;;;;;;5022990;28;20247;-51
2022/06/17 10:35:35;;;;;;;1.85;1.30;;;;;;;;;;5021490;28;20249;-51
2022/06/17 10:38:02;;;;;;;3.38;1.60;;;;;;;;;;5015744;28;20715;-51
2022/06/17 10:40:32;;;;;;;5.18;1.10;;;;;;;;;;5025759;28;20319;-50
2022/06/17 10:43:01;;;;;;;3.35;1.42;;;;;;;;;;5018910;28;20232;-53
2022/06/17 10:45:27;;;;;;;1.23;1.15;;;;;;;;;;5015769;28;20310;-52
2022/06/17 10:47:56;;;;;;;1.55;1.35;;;;;;;;;;5020763;28;20340;-52
2022/06/17 10:50:23;;;;;;;2.15;1.17;;;;;;;;;;5024030;28;20314;-52
2022/06/17 10:52:52;;;;;;;2.38;1.48;;;;;;;;;;5030852;28;20232;-52
2022/06/17 10:55:20;;;;;;;2.00;1.45;;;;;;;;;;5024227;28;20698;-53
2022/06/17 10:58:08;;;;;;;1.35;0.90;;;;;;;;;;5025858;28;20240;-51
2022/06/17 11:00:41;;;;;;;2.85;1.48;;;;;;;;;;5022849;28;20735;-53
2022/06/17 11:03:16;;;;;;;2.25;1.33;;;;;;;;;;5014203;28;20632;-52
2022/06/17 11:05:42;;;;;;;1.45;1.33;;;;;;;;;;5021854;28;20481;-51
2022/06/17 11:08:20;;;;;;;2.53;1.25;;;;;;;;;;5020988;28;20232;-52
2022/06/17 11:10:51;;;;;;;1.27;1.17;;;;;;;;;;5017621;28;20232;-53
2022/06/17 11:13:20;;;;;;;1.88;1.17;;;;;;;;;;5022537;28;20251;-53
2022/06/17 11:15:48;;;;;;;1.67;1.10;;;;;;;;;;5023357;28;20232;-55
2022/06/17 11:18:15;;;;;;;1.15;1.10;;;;;;;;;;5021730;28;20248;-52
2022/06/17 11:20:52;;;;;;;1.55;1.38;;;;;;;;;;5019833;28;20228;-52
2022/06/17 11:23:20;;;;;;;2.08;1.13;;;;;;;;;;5022206;28;20232;-52
2022/06/17 11:25:48;;;;;;;1.92;1.13;;;;;;;;;;5022341;28;20225;-52
2022/06/17 11:28:22;;;;;;;2.63;1.42;;;;;;;;;;5043137;28;20611;-52
2022/06/17 11:30:53;;;;;;;0.90;0.90;;;;;;;;;;5015073;28;20233;-52
2022/06/17 11:33:22;;;;;;;1.20;1.10;;;;;;;;;;5019618;28;20240;-52
2022/06/17 11:35:57;;;;;;;1.23;1.00;;;;;;;;;;5022321;28;20265;-53
2022/06/17 11:38:25;;;;;;;0.68;0.68;;;;;;;;;;5024713;28;20618;-52
2022/06/17 11:40:52;;;;;;;1.95;0.90;;;;;;;;;;5021523;28;20714;-53
2022/06/17 11:43:32;;;;;;;1.15;1.00;;;;;;;;;;5028426;28;20240;-52
2022/06/17 11:45:59;;;;;;;1.23;1.10;;;;;;;;;;5024352;28;20236;-53
2022/06/17 11:48:25;;;;;;;1.00;0.93;;;;;;;;;;5027320;28;20315;-52
2022/06/17 11:51:02;;;;;;;1.15;1.05;;;;;;;;;;5025247;28;20240;-54
2022/06/17 11:53:30;;;;;;;0.98;0.80;;;;;;;;;;5026773;28;20227;-53
2022/06/17 11:55:56;;;;;;;1.15;1.00;;;;;;;;;;5028373;28;20329;-52
2022/06/17 11:58:22;;;;;;;1.20;1.10;;;;;;;;;;5026988;28;20638;-51
2022/06/17 12:00:52;;;;;;;1.38;1.05;;;;;;;;;;5023787;28;20236;-52
2022/06/17 12:03:19;;;;;;;1.15;0.90;;;;;;;;;;5011015;28;20919;-53
2022/06/17 12:05:55;;;;;;;2.58;1.10;;;;;;;;;;5023395;28;20228;-54
2022/06/17 12:08:24;;;;;;;0.80;0.80;;;;;;;;;;5021893;28;20238;-53
2022/06/17 12:10:51;;;;;;;3.22;1.05;;;;;;;;;;5022648;28;20726;-57
2022/06/17 12:13:23;;;;;;;2.95;1.15;;;;;;;;;;5025798;28;20236;-53
2022/06/17 12:15:52;;;;;;;1.38;1.17;;;;;;;;;;5024156;28;20237;-53
2022/06/17 12:18:21;;;;;;;0.70;0.70;;;;;;;;;;5041765;28;20234;-53
2022/06/17 12:20:52;;;;;;;3.60;0.80;;;;;;;;;;5034646;28;20233;-54
2022/06/17 12:23:20;;;;;;;0.80;0.80;;;;;;;;;;5020660;28;20307;-54
2022/06/17 12:25:47;;;;;;;0.73;0.60;;;;;;;;;;5021410;28;20774;-53
2022/06/17 12:28:20;;;;;;;0.82;0.73;;;;;;;;;;5026040;28;20256;-53
2022/06/17 12:30:51;;;;;;;1.55;0.60;;;;;;;;;;5009029;28;20236;-53
2022/06/17 12:33:22;;;;;;;1.65;0.95;;;;;;;;;;5018260;28;20240;-52
2022/06/17 12:35:53;;;;;;;0.50;0.50;;;;;;;;;;5023882;28;20223;-52
2022/06/17 12:38:23;;;;;;;0.77;0.70;;;;;;;;;;5024610;28;20240;-52
2022/06/17 12:40:54;;;;;;;0.70;0.60;;;;;;;;;;5025767;28;20224;-52
2022/06/17 12:43:24;;;;;;;1.20;0.82;;;;;;;;;;5023464;28;20746;-53
2022/06/17 12:45:54;;;;;;;0.80;0.80;;;;;;;;;;5035824;28;20255;-52
2022/06/17 12:48:28;;;;;;;1.75;0.82;;;;;;;;;;5023412;28;20232;-52
2022/06/17 12:53:47;;;;;;;1.13;0.70;;;;;;;;;;5021464;28;20234;-52
2022/06/17 12:56:20;;;;;;;1.38;0.57;;;;;;;;;;5025239;28;20220;-53
2022/06/17 12:59:02;;;;;;;0.65;0.65;;;;;;;;;;5020206;28;20240;-53
2022/06/17 13:01:38;;;;;;;1.00;0.90;;;;;;;;;;5013806;28;20236;-51
2022/06/17 13:04:14;;;;;;;0.80;0.80;;;;;;;;;;5033012;28;20282;-53
2022/06/17 13:06:45;;;;;;;1.42;1.27;;;;;;;;;;5032365;28;20232;-52
2022/06/17 13:09:15;;;;;;;2.40;0.70;;;;;;;;;;5023960;28;20258;-52
2022/06/17 13:11:45;;;;;;;2.15;1.25;;;;;;;;;;5020544;28;20224;-52
2022/06/17 13:14:19;;;;;;;2.25;1.20;;;;;;;;;;5021313;28;20228;-53
2022/06/17 13:16:48;;;;;;;0.90;0.90;;;;;;;;;;5024072;28;20224;-53
2022/06/17 13:19:18;;;;;;;2.60;0.57;;;;;;;;;;5019114;28;20256;-53
2022/06/17 13:21:47;;;;;;;0.65;0.65;;;;;;;;;;5020738;28;20235;-53
2022/06/17 13:24:18;;;;;;;2.30;0.82;;;;;;;;;;5014520;28;20251;-53
2022/06/17 13:26:47;;;;;;;1.20;1.10;;;;;;;;;;5021191;28;20232;-53
2022/06/17 13:29:17;;;;;;;1.55;1.02;;;;;;;;;;5025011;28;20313;-53
2022/06/17 13:31:49;;;;;;;0.90;0.90;;;;;;;;;;5028419;28;20242;-53
2022/06/17 13:34:20;;;;;;;1.88;0.90;;;;;;;;;;5024507;28;20239;-53
2022/06/17 13:36:50;;;;;;;1.70;1.20;;;;;;;;;;5024136;28;20271;-52
2022/06/17 13:39:18;;;;;;;0.80;0.70;;;;;;;;;;5022512;28;20702;-52
2022/06/17 13:41:47;;;;;;;1.00;0.90;;;;;;;;;;5030077;28;20315;-52
2022/06/17 13:44:17;;;;;;;1.58;0.95;;;;;;;;;;5045276;28;20340;-52
2022/06/17 13:46:51;;;;;;;1.55;1.00;;;;;;;;;;5048114;28;20255;-53
2022/06/17 13:49:23;;;;;;;2.55;1.13;;;;;;;;;;5040061;28;20232;-52
2022/06/17 13:51:53;;;;;;;1.20;1.10;;;;;;;;;;5024217;28;20232;-52
2022/06/17 13:54:28;;;;;;;1.83;1.02;;;;;;;;;;5025025;28;20232;-52
2022/06/17 13:56:57;;;;;;;1.35;1.05;;;;;;;;;;5012768;28;20310;-52
2022/06/17 13:59:28;;;;;;;0.70;0.70;;;;;;;;;;5020594;28;20240;-53
2022/06/17 14:02:08;;;;;;;2.22;1.23;;;;;;;;;;5027615;28;20243;-52
2022/06/17 14:04:59;;;;;;;1.27;1.23;;;;;;;;;;5020920;28;20225;-52
2022/06/17 14:07:47;;;;;;;1.23;1.15;;;;;;;;;;5025116;28;20231;-52
2022/06/17 14:10:27;;;;;;;1.85;1.70;;;;;;;;;;5021639;28;20232;-52
2022/06/17 14:12:54;;;;;;;1.80;1.48;;;;;;;;;;5024047;28;20243;-52
2022/06/17 14:15:26;;;;;;;1.30;1.20;;;;;;;;;;5019709;28;20243;-54
2022/06/17 14:17:55;;;;;;;2.53;1.40;;;;;;;;;;5017553;28;20240;-53
2022/06/17 14:20:30;;;;;;;4.78;1.17;;;;;;;;;;5019124;28;20227;-52
2022/06/17 14:23:01;;;;;;;2.75;1.48;;;;;;;;;;5021305;28;20242;-52
2022/06/17 14:25:43;;;;;;;1.52;1.38;;;;;;;;;;5033155;28;20251;-52
2022/06/17 14:28:29;;;;;;;1.52;1.23;;;;;;;;;;5021441;28;20228;-51
2022/06/17 14:31:09;;;;;;;2.25;1.73;;;;;;;;;;5022775;28;20236;-52
2022/06/17 14:33:54;;;;;;;1.98;1.63;;;;;;;;;;5012319;28;20246;-53
2022/06/17 14:36:35;;;;;;;1.42;1.33;;;;;;;;;;5011046;28;20239;-52
2022/06/17 14:39:07;;;;;;;3.13;1.65;;;;;;;;;;5022645;28;20236;-52
2022/06/17 14:44:24;;;;;;;1.58;1.48;;;;;;;;;;5009000;28;20231;-52
2022/06/17 14:47:09;;;;;;;4.45;1.83;;;;;;;;;;5020375;28;20359;-52
2022/06/17 14:49:39;;;;;;;2.15;1.92;;;;;;;;;;5008929;28;20260;-52
2022/06/17 14:52:20;;;;;;;5.53;1.58;;;;;;;;;;5019478;28;20233;-52
2022/06/17 14:54:56;;;;;;;3.53;1.58;;;;;;;;;;5021392;28;20329;-52
2022/06/17 14:57:24;;;;;;;2.13;1.90;;;;;;;;;;5028032;28;20243;-52
2022/06/17 14:59:50;;;;;;;1.63;1.52;;;;;;;;;;5013625;28;20246;-52
2022/06/17 15:02:19;;;;;;;2.28;1.33;;;;;;;;;;5024888;28;20240;-52
2022/06/17 15:04:47;;;;;;;1.35;1.25;;;;;;;;;;5023398;28;20414;-51
2022/06/17 15:07:16;;;;;;;4.90;1.40;;;;;;;;;;5027510;28;20236;-51
2022/06/17 15:09:48;;;;;;;1.95;1.50;;;;;;;;;;5015607;28;20233;-51
2022/06/17 15:12:22;;;;;;;1.90;1.42;;;;;;;;;;5033610;28;20235;-52
2022/06/17 15:14:50;;;;;;;1.67;1.55;;;;;;;;;;5027602;28;20244;-52